sensor_id;sensor_type;location;lat;lon;timestamp;pressure;altitude;pressure_sealevel;temperature;humidity
53619;BME280;68717;53.040;18.488;2024-03-29T00:00:05;99431.19;;;10.72;91.19
53619;BME280;68717;53.040;18.488;2024-03-29T00:00:18;99430.16;;;10.73;91.08
53619;BME280;68717;53.040;18.488;2024-03-29T00:00:50;99434.53;;;10.74;90.53
53619;BME280;68717;53.040;18.488;2024-03-29T00:01:22;99428.16;;;10.75;90.38
53619;BME280;68717;53.040;18.488;2024-03-29T00:01:39;99432.84;;;10.73;90.30
53619;BME280;68717;53.040;18.488;2024-03-29T00:01:51;99433.72;;;10.74;90.43
53619;BME280;68717;53.040;18.488;2024-03-29T00:02:03;99431.19;;;10.72;90.42
53619;BME280;68717;53.040;18.488;2024-03-29T00:02:15;99427.50;;;10.73;90.52
53619;BME280;68717;53.040;18.488;2024-03-29T00:02:27;99436.53;;;10.72;90.54
53619;BME280;68717;53.040;18.488;2024-03-29T00:02:39;99433.03;;;10.72;90.61
53619;BME280;68717;53.040;18.488;2024-03-29T00:02:51;99425.81;;;10.72;90.83
53619;BME280;68717;53.040;18.488;2024-03-29T00:03:04;99433.88;;;10.72;90.89
53619;BME280;68717;53.040;18.488;2024-03-29T00:03:16;99428.50;;;10.72;90.89
53619;BME280;68717;53.040;18.488;2024-03-29T00:03:28;99431.19;;;10.72;90.83
53619;BME280;68717;53.040;18.488;2024-03-29T00:03:40;99425.81;;;10.72;90.85
53619;BME280;68717;53.040;18.488;2024-03-29T00:03:52;99424.13;;;10.71;90.96
53619;BME280;68717;53.040;18.488;2024-03-29T00:04:05;99426.81;;;10.71;91.07
53619;BME280;68717;53.040;18.488;2024-03-29T00:04:17;99427.69;;;10.72;91.03
53619;BME280;68717;53.040;18.488;2024-03-29T00:04:29;99427.69;;;10.72;90.88
53619;BME280;68717;53.040;18.488;2024-03-29T00:04:41;99429.50;;;10.71;90.87
53619;BME280;68717;53.040;18.488;2024-03-29T00:04:53;99433.88;;;10.72;90.74
53619;BME280;68717;53.040;18.488;2024-03-29T00:05:05;99434.03;;;10.71;90.72
53619;BME280;68717;53.040;18.488;2024-03-29T00:05:18;99425.16;;;10.70;90.77
53619;BME280;68717;53.040;18.488;2024-03-29T00:05:30;99427.00;;;10.70;90.77
53619;BME280;68717;53.040;18.488;2024-03-29T00:05:42;99434.03;;;10.71;90.88
53619;BME280;68717;53.040;18.488;2024-03-29T00:05:54;99430.50;;;10.70;90.99
53619;BME280;68717;53.040;18.488;2024-03-29T00:06:06;99429.50;;;10.71;90.94
53619;BME280;68717;53.040;18.488;2024-03-29T00:06:18;99432.38;;;10.70;90.96
53619;BME280;68717;53.040;18.488;2024-03-29T00:06:31;99434.22;;;10.69;91.00
53619;BME280;68717;53.040;18.488;2024-03-29T00:06:43;99436.91;;;10.69;91.00
53619;BME280;68717;53.040;18.488;2024-03-29T00:06:55;99433.19;;;10.70;91.19
53619;BME280;68717;53.040;18.488;2024-03-29T00:07:08;99443.91;;;10.70;91.19
53619;BME280;68717;53.040;18.488;2024-03-29T00:07:23;99438.56;;;10.70;91.17
53619;BME280;68717;53.040;18.488;2024-03-29T00:07:35;99440.41;;;10.70;91.12
53619;BME280;68717;53.040;18.488;2024-03-29T00:07:47;99436.91;;;10.69;91.10
53619;BME280;68717;53.040;18.488;2024-03-29T00:07:59;99447.63;;;10.69;91.03
53619;BME280;68717;53.040;18.488;2024-03-29T00:08:11;99446.59;;;10.70;91.11
53619;BME280;68717;53.040;18.488;2024-03-29T00:08:23;99452.97;;;10.69;91.09
53619;BME280;68717;53.040;18.488;2024-03-29T00:08:35;99444.94;;;10.69;90.89
53619;BME280;68717;53.040;18.488;2024-03-29T00:08:47;99452.97;;;10.69;90.92
53619;BME280;68717;53.040;18.488;2024-03-29T00:08:59;99443.09;;;10.70;91.00
53619;BME280;68717;53.040;18.488;2024-03-29T00:09:11;99445.75;;;10.70;90.87
53619;BME280;68717;53.040;18.488;2024-03-29T00:09:24;99444.94;;;10.69;90.61
53619;BME280;68717;53.040;18.488;2024-03-29T00:09:36;99447.63;;;10.69;90.71
53619;BME280;68717;53.040;18.488;2024-03-29T00:09:48;99449.44;;;10.68;90.57
53619;BME280;68717;53.040;18.488;2024-03-29T00:10:00;99447.63;;;10.69;90.52
53619;BME280;68717;53.040;18.488;2024-03-29T00:10:12;99449.44;;;10.68;90.40
53619;BME280;68717;53.040;18.488;2024-03-29T00:10:24;99452.97;;;10.69;90.22
53619;BME280;68717;53.040;18.488;2024-03-29T00:10:38;99453.97;;;10.68;90.42
53619;BME280;68717;53.040;18.488;2024-03-29T00:10:50;99455.81;;;10.67;90.33
53619;BME280;68717;53.040;18.488;2024-03-29T00:11:03;99453.97;;;10.68;90.46
53619;BME280;68717;53.040;18.488;2024-03-29T00:11:15;99459.31;;;10.68;90.52
53619;BME280;68717;53.040;18.488;2024-03-29T00:11:27;99453.97;;;10.68;90.06
53619;BME280;68717;53.040;18.488;2024-03-29T00:11:39;99451.28;;;10.68;90.32
53619;BME280;68717;53.040;18.488;2024-03-29T00:11:51;99454.97;;;10.67;90.31
53619;BME280;68717;53.040;18.488;2024-03-29T00:12:04;99452.31;;;10.67;90.31
53619;BME280;68717;53.040;18.488;2024-03-29T00:12:16;99453.28;;;10.66;90.51
53619;BME280;68717;53.040;18.488;2024-03-29T00:12:28;99460.34;;;10.67;90.68
53619;BME280;68717;53.040;18.488;2024-03-29T00:12:40;99455.13;;;10.65;90.61
53619;BME280;68717;53.040;18.488;2024-03-29T00:12:52;99463.19;;;10.65;90.86
53619;BME280;68717;53.040;18.488;2024-03-29T00:13:10;99466.69;;;10.66;90.90
53619;BME280;68717;53.040;18.488;2024-03-29T00:13:23;99458.66;;;10.66;90.63
53619;BME280;68717;53.040;18.488;2024-03-29T00:13:35;99461.31;;;10.66;90.86
53619;BME280;68717;53.040;18.488;2024-03-29T00:13:48;99462.34;;;10.65;90.65
53619;BME280;68717;53.040;18.488;2024-03-29T00:14:00;99454.13;;;10.66;90.32
53619;BME280;68717;53.040;18.488;2024-03-29T00:14:12;99454.13;;;10.66;90.06
53619;BME280;68717;53.040;18.488;2024-03-29T00:14:24;99462.16;;;10.66;89.91
53619;BME280;68717;53.040;18.488;2024-03-29T00:14:37;99470.19;;;10.66;90.26
53619;BME280;68717;53.040;18.488;2024-03-29T00:14:49;99460.34;;;10.67;90.19
53619;BME280;68717;53.040;18.488;2024-03-29T00:15:01;99449.63;;;10.67;90.23
53619;BME280;68717;53.040;18.488;2024-03-29T00:15:13;99464.84;;;10.66;90.00
53619;BME280;68717;53.040;18.488;2024-03-29T00:15:25;99458.34;;;10.69;89.33
53619;BME280;68717;53.040;18.488;2024-03-29T00:15:38;99454.78;;;10.68;89.29
53619;BME280;68717;53.040;18.488;2024-03-29T00:15:50;99463.69;;;10.69;89.26
53619;BME280;68717;53.040;18.488;2024-03-29T00:16:03;99452.31;;;10.67;89.34
53619;BME280;68717;53.040;18.488;2024-03-29T00:16:15;99454.97;;;10.67;89.49
53619;BME280;68717;53.040;18.488;2024-03-29T00:16:27;99468.38;;;10.67;89.59
53619;BME280;68717;53.040;18.488;2024-03-29T00:16:39;99464.84;;;10.66;89.79
53619;BME280;68717;53.040;18.488;2024-03-29T00:16:52;99463.19;;;10.65;89.65
53619;BME280;68717;53.040;18.488;2024-03-29T00:17:05;99467.69;;;10.65;90.12
53619;BME280;68717;53.040;18.488;2024-03-29T00:17:17;99464.00;;;10.66;90.55
53619;BME280;68717;53.040;18.488;2024-03-29T00:17:30;99456.97;;;10.65;90.26
53619;BME280;68717;53.040;18.488;2024-03-29T00:17:42;99462.34;;;10.65;90.15
53619;BME280;68717;53.040;18.488;2024-03-29T00:17:55;99466.84;;;10.64;90.25
53619;BME280;68717;53.040;18.488;2024-03-29T00:18:07;99452.59;;;10.64;90.27
53619;BME280;68717;53.040;18.488;2024-03-29T00:18:20;99463.34;;;10.64;90.23
53619;BME280;68717;53.040;18.488;2024-03-29T00:18:32;99464.34;;;10.63;90.36
53619;BME280;68717;53.040;18.488;2024-03-29T00:18:44;99467.84;;;10.63;90.30
53619;BME280;68717;53.040;18.488;2024-03-29T00:18:57;99468.84;;;10.62;90.22
53619;BME280;68717;53.040;18.488;2024-03-29T00:19:09;99462.66;;;10.62;90.09
53619;BME280;68717;53.040;18.488;2024-03-29T00:19:21;99463.66;;;10.61;90.32
53619;BME280;68717;53.040;18.488;2024-03-29T00:19:33;99466.34;;;10.61;90.33
53619;BME280;68717;53.040;18.488;2024-03-29T00:19:46;99463.66;;;10.61;90.40
53619;BME280;68717;53.040;18.488;2024-03-29T00:19:58;99468.19;;;10.60;90.42
53619;BME280;68717;53.040;18.488;2024-03-29T00:20:11;99464.50;;;10.61;90.38
53619;BME280;68717;53.040;18.488;2024-03-29T00:20:24;99470.03;;;10.60;90.39
53619;BME280;68717;53.040;18.488;2024-03-29T00:20:36;99471.72;;;10.61;90.49
53619;BME280;68717;53.040;18.488;2024-03-29T00:20:51;99467.34;;;10.60;90.67
53619;BME280;68717;53.040;18.488;2024-03-29T00:21:03;99468.00;;;10.62;90.54
53619;BME280;68717;53.040;18.488;2024-03-29T00:21:15;99469.03;;;10.61;89.91
53619;BME280;68717;53.040;18.488;2024-03-29T00:21:28;99469.88;;;10.61;89.89
53619;BME280;68717;53.040;18.488;2024-03-29T00:21:40;99468.00;;;10.62;89.95
53619;BME280;68717;53.040;18.488;2024-03-29T00:21:53;99462.84;;;10.60;89.91
53619;BME280;68717;53.040;18.488;2024-03-29T00:22:05;99475.38;;;10.60;89.98
53619;BME280;68717;53.040;18.488;2024-03-29T00:22:18;99478.25;;;10.58;90.21
53619;BME280;68717;53.040;18.488;2024-03-29T00:22:33;99471.19;;;10.57;90.36
53619;BME280;68717;53.040;18.488;2024-03-29T00:22:45;99477.38;;;10.58;90.41
53619;BME280;68717;53.040;18.488;2024-03-29T00:22:57;99476.56;;;10.57;90.76
53619;BME280;68717;53.040;18.488;2024-03-29T00:23:09;99480.06;;;10.58;90.79
53619;BME280;68717;53.040;18.488;2024-03-29T00:23:21;99477.38;;;10.58;91.08
53619;BME280;68717;53.040;18.488;2024-03-29T00:23:33;99476.56;;;10.57;91.05
53619;BME280;68717;53.040;18.488;2024-03-29T00:23:45;99481.22;;;10.55;91.35
53619;BME280;68717;53.040;18.488;2024-03-29T00:23:57;99483.91;;;10.55;91.34
53619;BME280;68717;53.040;18.488;2024-03-29T00:24:09;99482.06;;;10.56;91.61
53619;BME280;68717;53.040;18.488;2024-03-29T00:24:21;99488.44;;;10.55;91.66
53619;BME280;68717;53.040;18.488;2024-03-29T00:24:33;99481.38;;;10.54;91.93
53619;BME280;68717;53.040;18.488;2024-03-29T00:24:45;99483.22;;;10.53;92.23
53619;BME280;68717;53.040;18.488;2024-03-29T00:24:57;99476.03;;;10.54;92.39
53619;BME280;68717;53.040;18.488;2024-03-29T00:25:09;99480.56;;;10.53;92.33
53619;BME280;68717;53.040;18.488;2024-03-29T00:25:21;99481.38;;;10.54;92.41
53619;BME280;68717;53.040;18.488;2024-03-29T00:25:33;99479.72;;;10.53;92.71
53619;BME280;68717;53.040;18.488;2024-03-29T00:25:45;99481.38;;;10.54;92.69
53619;BME280;68717;53.040;18.488;2024-03-29T00:25:57;99487.75;;;10.53;92.52
53619;BME280;68717;53.040;18.488;2024-03-29T00:26:09;99485.09;;;10.53;92.75
53619;BME280;68717;53.040;18.488;2024-03-29T00:26:21;99477.03;;;10.53;92.65
53619;BME280;68717;53.040;18.488;2024-03-29T00:26:33;99484.25;;;10.52;92.60
53619;BME280;68717;53.040;18.488;2024-03-29T00:26:45;99485.91;;;10.53;92.70
53619;BME280;68717;53.040;18.488;2024-03-29T00:26:57;99482.41;;;10.53;92.70
53619;BME280;68717;53.040;18.488;2024-03-29T00:27:09;99488.59;;;10.53;92.61
53619;BME280;68717;53.040;18.488;2024-03-29T00:27:21;99484.06;;;10.54;92.27
53619;BME280;68717;53.040;18.488;2024-03-29T00:27:33;99486.75;;;10.54;92.13
53619;BME280;68717;53.040;18.488;2024-03-29T00:27:45;99488.44;;;10.55;91.89
53619;BME280;68717;53.040;18.488;2024-03-29T00:27:58;99488.44;;;10.55;91.38
53619;BME280;68717;53.040;18.488;2024-03-29T00:28:10;99488.44;;;10.55;91.23
53619;BME280;68717;53.040;18.488;2024-03-29T00:28:22;99490.28;;;10.54;91.25
53619;BME280;68717;53.040;18.488;2024-03-29T00:28:35;99489.44;;;10.54;91.28
53619;BME280;68717;53.040;18.488;2024-03-29T00:28:47;99492.97;;;10.54;91.42
53619;BME280;68717;53.040;18.488;2024-03-29T00:29:02;99494.78;;;10.54;91.46
53619;BME280;68717;53.040;18.488;2024-03-29T00:29:15;99491.28;;;10.53;91.63
53619;BME280;68717;53.040;18.488;2024-03-29T00:29:27;99488.78;;;10.52;91.54
53619;BME280;68717;53.040;18.488;2024-03-29T00:29:41;99487.09;;;10.51;91.77
53619;BME280;68717;53.040;18.488;2024-03-29T00:29:54;99492.44;;;10.51;92.13
53619;BME280;68717;53.040;18.488;2024-03-29T00:30:07;99491.63;;;10.50;92.09
53619;BME280;68717;53.040;18.488;2024-03-29T00:30:19;99493.47;;;10.50;92.30
53619;BME280;68717;53.040;18.488;2024-03-29T00:30:32;99503.16;;;10.51;92.29
53619;BME280;68717;53.040;18.488;2024-03-29T00:30:44;99491.63;;;10.50;92.48
53619;BME280;68717;53.040;18.488;2024-03-29T00:30:57;99500.63;;;10.49;92.52
53619;BME280;68717;53.040;18.488;2024-03-29T00:31:09;99498.81;;;10.50;92.37
53619;BME280;68717;53.040;18.488;2024-03-29T00:31:23;99495.28;;;10.49;92.58
53619;BME280;68717;53.040;18.488;2024-03-29T00:31:38;99496.13;;;10.50;92.54
53619;BME280;68717;53.040;18.488;2024-03-29T00:31:51;99494.44;;;10.48;92.44
53619;BME280;68717;53.040;18.488;2024-03-29T00:32:07;99497.13;;;10.48;92.70
53619;BME280;68717;53.040;18.488;2024-03-29T00:32:19;99496.28;;;10.48;92.72
53619;BME280;68717;53.040;18.488;2024-03-29T00:32:32;99503.50;;;10.47;92.88
53619;BME280;68717;53.040;18.488;2024-03-29T00:32:44;99498.13;;;10.47;93.01
53619;BME280;68717;53.040;18.488;2024-03-29T00:32:57;99501.81;;;10.46;93.37
53619;BME280;68717;53.040;18.488;2024-03-29T00:33:09;99504.47;;;10.46;93.41
53619;BME280;68717;53.040;18.488;2024-03-29T00:33:24;99502.81;;;10.45;92.99
53619;BME280;68717;53.040;18.488;2024-03-29T00:33:36;99501.97;;;10.45;93.32
53619;BME280;68717;53.040;18.488;2024-03-29T00:33:48;99509.16;;;10.44;93.33
53619;BME280;68717;53.040;18.488;2024-03-29T00:34:01;99511.84;;;10.44;93.37
53619;BME280;68717;53.040;18.488;2024-03-29T00:34:13;99503.81;;;10.44;93.34
53619;BME280;68717;53.040;18.488;2024-03-29T00:34:25;99500.28;;;10.44;93.53
53619;BME280;68717;53.040;18.488;2024-03-29T00:34:37;99502.97;;;10.44;93.52
53619;BME280;68717;53.040;18.488;2024-03-29T00:34:50;99501.31;;;10.43;93.75
53619;BME280;68717;53.040;18.488;2024-03-29T00:35:02;99507.50;;;10.43;93.74
53619;BME280;68717;53.040;18.488;2024-03-29T00:35:14;99511.16;;;10.42;93.89
53619;BME280;68717;53.040;18.488;2024-03-29T00:35:26;99499.63;;;10.42;94.10
53619;BME280;68717;53.040;18.488;2024-03-29T00:35:38;99501.31;;;10.43;94.21
53619;BME280;68717;53.040;18.488;2024-03-29T00:35:50;99512.03;;;10.43;94.11
53619;BME280;68717;53.040;18.488;2024-03-29T00:36:03;99508.47;;;10.42;94.01
53619;BME280;68717;53.040;18.488;2024-03-29T00:36:15;99510.47;;;10.40;94.19
53619;BME280;68717;53.040;18.488;2024-03-29T00:36:27;99508.66;;;10.41;94.33
53619;BME280;68717;53.040;18.488;2024-03-29T00:36:39;99521.19;;;10.40;94.47
53619;BME280;68717;53.040;18.488;2024-03-29T00:36:51;99519.53;;;10.39;94.48
53619;BME280;68717;53.040;18.488;2024-03-29T00:37:03;99513.16;;;10.40;94.27
53619;BME280;68717;53.040;18.488;2024-03-29T00:37:16;99514.03;;;10.41;94.41
53619;BME280;68717;53.040;18.488;2024-03-29T00:37:27;99509.66;;;10.40;94.10
53619;BME280;68717;53.040;18.488;2024-03-29T00:37:40;99520.53;;;10.38;93.79
53619;BME280;68717;53.040;18.488;2024-03-29T00:37:51;99523.38;;;10.37;94.07
53619;BME280;68717;53.040;18.488;2024-03-29T00:38:04;99523.53;;;10.35;94.29
53619;BME280;68717;53.040;18.488;2024-03-29T00:38:16;99528.75;;;10.37;94.32
53619;BME280;68717;53.040;18.488;2024-03-29T00:38:28;99522.53;;;10.36;94.45
53619;BME280;68717;53.040;18.488;2024-03-29T00:38:39;99527.22;;;10.34;94.34
53619;BME280;68717;53.040;18.488;2024-03-29T00:38:51;99524.56;;;10.34;94.47
53619;BME280;68717;53.040;18.488;2024-03-29T00:39:03;99519.19;;;10.34;94.48
53619;BME280;68717;53.040;18.488;2024-03-29T00:39:15;99523.38;;;10.37;94.21
53619;BME280;68717;53.040;18.488;2024-03-29T00:39:27;99529.56;;;10.37;93.48
53619;BME280;68717;53.040;18.488;2024-03-29T00:39:39;99525.03;;;10.38;93.23
53619;BME280;68717;53.040;18.488;2024-03-29T00:39:51;99524.22;;;10.37;93.37
53619;BME280;68717;53.040;18.488;2024-03-29T00:40:04;99527.88;;;10.36;93.45
53619;BME280;68717;53.040;18.488;2024-03-29T00:40:16;99530.56;;;10.36;93.67
53619;BME280;68717;53.040;18.488;2024-03-29T00:40:28;99528.91;;;10.35;93.43
53619;BME280;68717;53.040;18.488;2024-03-29T00:40:40;99529.91;;;10.34;93.81
53619;BME280;68717;53.040;18.488;2024-03-29T00:40:52;99526.22;;;10.35;93.94
53619;BME280;68717;53.040;18.488;2024-03-29T00:41:04;99540.63;;;10.34;93.97
53619;BME280;68717;53.040;18.488;2024-03-29T00:41:16;99540.63;;;10.34;93.84
53619;BME280;68717;53.040;18.488;2024-03-29T00:41:28;99538.94;;;10.33;94.08
53619;BME280;68717;53.040;18.488;2024-03-29T00:41:40;99535.41;;;10.33;94.13
53619;BME280;68717;53.040;18.488;2024-03-29T00:41:52;99540.94;;;10.31;94.32
53619;BME280;68717;53.040;18.488;2024-03-29T00:42:04;99536.41;;;10.32;94.57
53619;BME280;68717;53.040;18.488;2024-03-29T00:42:16;99531.91;;;10.32;94.59
53619;BME280;68717;53.040;18.488;2024-03-29T00:42:28;99536.25;;;10.33;94.31
53619;BME280;68717;53.040;18.488;2024-03-29T00:42:40;99538.09;;;10.33;94.09
53619;BME280;68717;53.040;18.488;2024-03-29T00:42:52;99543.31;;;10.34;93.69
53619;BME280;68717;53.040;18.488;2024-03-29T00:43:04;99535.25;;;10.34;93.50
53619;BME280;68717;53.040;18.488;2024-03-29T00:43:16;99538.94;;;10.33;93.31
53619;BME280;68717;53.040;18.488;2024-03-29T00:43:28;99543.59;;;10.31;93.64
53619;BME280;68717;53.040;18.488;2024-03-29T00:43:40;99542.44;;;10.34;93.74
53619;BME280;68717;53.040;18.488;2024-03-29T00:43:52;99538.09;;;10.33;93.60
53619;BME280;68717;53.040;18.488;2024-03-29T00:44:04;99544.28;;;10.33;93.26
53619;BME280;68717;53.040;18.488;2024-03-29T00:44:16;99539.94;;;10.32;93.45
53619;BME280;68717;53.040;18.488;2024-03-29T00:44:28;99540.94;;;10.31;93.41
53619;BME280;68717;53.040;18.488;2024-03-29T00:44:41;99548.13;;;10.31;93.90
53619;BME280;68717;53.040;18.488;2024-03-29T00:44:53;99541.06;;;10.30;94.05
53619;BME280;68717;53.040;18.488;2024-03-29T00:45:06;99542.94;;;10.29;94.41
53619;BME280;68717;53.040;18.488;2024-03-29T00:45:18;99548.28;;;10.29;94.63
53619;BME280;68717;53.040;18.488;2024-03-29T00:45:30;99546.63;;;10.28;94.63
53619;BME280;68717;53.040;18.488;2024-03-29T00:45:42;99547.59;;;10.27;94.96
53619;BME280;68717;53.040;18.488;2024-03-29T00:45:54;99550.28;;;10.27;95.07
53619;BME280;68717;53.040;18.488;2024-03-29T00:46:06;99552.13;;;10.26;95.13
53619;BME280;68717;53.040;18.488;2024-03-29T00:46:21;99552.28;;;10.25;95.29
53619;BME280;68717;53.040;18.488;2024-03-29T00:46:33;99554.94;;;10.25;95.44
53619;BME280;68717;53.040;18.488;2024-03-29T00:46:45;99546.09;;;10.24;95.83
53619;BME280;68717;53.040;18.488;2024-03-29T00:46:57;99550.47;;;10.25;95.69
53619;BME280;68717;53.040;18.488;2024-03-29T00:47:09;99548.63;;;10.26;95.39
53619;BME280;68717;53.040;18.488;2024-03-29T00:47:21;99546.91;;;10.25;95.40
53619;BME280;68717;53.040;18.488;2024-03-29T00:47:33;99553.28;;;10.24;95.34
53619;BME280;68717;53.040;18.488;2024-03-29T00:47:46;99550.59;;;10.24;95.46
53619;BME280;68717;53.040;18.488;2024-03-29T00:47:57;99557.63;;;10.25;95.32
53619;BME280;68717;53.040;18.488;2024-03-29T00:48:09;99555.13;;;10.23;95.43
53619;BME280;68717;53.040;18.488;2024-03-29T00:48:21;99548.91;;;10.23;95.72
53619;BME280;68717;53.040;18.488;2024-03-29T00:48:33;99557.81;;;10.23;95.92
53619;BME280;68717;53.040;18.488;2024-03-29T00:48:45;99560.66;;;10.22;95.88
53619;BME280;68717;53.040;18.488;2024-03-29T00:48:57;99558.66;;;10.24;95.89
53619;BME280;68717;53.040;18.488;2024-03-29T00:49:09;99555.97;;;10.24;95.66
53619;BME280;68717;53.040;18.488;2024-03-29T00:49:21;99559.47;;;10.24;95.46
53619;BME280;68717;53.040;18.488;2024-03-29T00:49:33;99566.69;;;10.24;95.61
53619;BME280;68717;53.040;18.488;2024-03-29T00:49:45;99558.78;;;10.22;95.65
53619;BME280;68717;53.040;18.488;2024-03-29T00:49:57;99560.66;;;10.22;95.85
53619;BME280;68717;53.040;18.488;2024-03-29T00:50:09;99562.50;;;10.21;95.83
53619;BME280;68717;53.040;18.488;2024-03-29T00:50:21;99564.00;;;10.24;95.89
53619;BME280;68717;53.040;18.488;2024-03-29T00:50:33;99557.97;;;10.22;95.70
53619;BME280;68717;53.040;18.488;2024-03-29T00:50:45;99566.97;;;10.21;95.72
53619;BME280;68717;53.040;18.488;2024-03-29T00:50:57;99562.63;;;10.20;95.94
53619;BME280;68717;53.040;18.488;2024-03-29T00:51:10;99560.94;;;10.19;96.24
53619;BME280;68717;53.040;18.488;2024-03-29T00:51:22;99564.47;;;10.19;96.54
53619;BME280;68717;53.040;18.488;2024-03-29T00:51:33;99566.31;;;10.19;96.52
53619;BME280;68717;53.040;18.488;2024-03-29T00:51:45;99562.78;;;10.18;96.70
53619;BME280;68717;53.040;18.488;2024-03-29T00:51:58;99571.84;;;10.17;96.74
53619;BME280;68717;53.040;18.488;2024-03-29T00:52:10;99578.03;;;10.18;96.99
53619;BME280;68717;53.040;18.488;2024-03-29T00:52:22;99566.47;;;10.17;97.09
53619;BME280;68717;53.040;18.488;2024-03-29T00:52:34;99567.47;;;10.16;96.95
53619;BME280;68717;53.040;18.488;2024-03-29T00:52:46;99570.31;;;10.15;97.23
53619;BME280;68717;53.040;18.488;2024-03-29T00:52:57;99562.28;;;10.15;97.46
53619;BME280;68717;53.040;18.488;2024-03-29T00:53:09;99561.41;;;10.14;97.54
53619;BME280;68717;53.040;18.488;2024-03-29T00:53:21;99571.31;;;10.14;97.64
53619;BME280;68717;53.040;18.488;2024-03-29T00:53:33;99567.78;;;10.13;97.95
53619;BME280;68717;53.040;18.488;2024-03-29T00:53:45;99563.41;;;10.12;98.14
53619;BME280;68717;53.040;18.488;2024-03-29T00:53:57;99569.78;;;10.11;98.30
53619;BME280;68717;53.040;18.488;2024-03-29T00:54:09;99567.09;;;10.11;98.65
53619;BME280;68717;53.040;18.488;2024-03-29T00:54:22;99561.75;;;10.11;98.54
53619;BME280;68717;53.040;18.488;2024-03-29T00:54:34;99566.28;;;10.11;98.77
53619;BME280;68717;53.040;18.488;2024-03-29T00:54:47;99561.91;;;10.10;98.85
53619;BME280;68717;53.040;18.488;2024-03-29T00:54:59;99568.09;;;10.10;98.84
53619;BME280;68717;53.040;18.488;2024-03-29T00:55:11;99572.47;;;10.11;98.94
53619;BME280;68717;53.040;18.488;2024-03-29T00:55:23;99568.09;;;10.10;98.47
53619;BME280;68717;53.040;18.488;2024-03-29T00:55:35;99571.00;;;10.17;97.48
53619;BME280;68717;53.040;18.488;2024-03-29T00:55:47;99566.47;;;10.17;96.71
53619;BME280;68717;53.040;18.488;2024-03-29T00:55:59;99566.47;;;10.17;96.50
53619;BME280;68717;53.040;18.488;2024-03-29T00:56:11;99563.94;;;10.16;96.64
53619;BME280;68717;53.040;18.488;2024-03-29T00:56:23;99570.31;;;10.15;96.65
53619;BME280;68717;53.040;18.488;2024-03-29T00:56:35;99569.47;;;10.14;96.95
53619;BME280;68717;53.040;18.488;2024-03-29T00:56:47;99572.31;;;10.13;97.16
53619;BME280;68717;53.040;18.488;2024-03-29T00:56:59;99571.44;;;10.12;97.32
53619;BME280;68717;53.040;18.488;2024-03-29T00:57:11;99573.28;;;10.12;97.48
53619;BME280;68717;53.040;18.488;2024-03-29T00:57:23;99567.94;;;10.12;97.66
53619;BME280;68717;53.040;18.488;2024-03-29T00:57:35;99569.78;;;10.11;97.74
53619;BME280;68717;53.040;18.488;2024-03-29T00:57:47;99573.28;;;10.12;97.84
53619;BME280;68717;53.040;18.488;2024-03-29T00:57:59;99569.78;;;10.11;97.66
53619;BME280;68717;53.040;18.488;2024-03-29T00:58:11;99569.09;;;10.09;97.72
53619;BME280;68717;53.040;18.488;2024-03-29T00:58:23;99572.31;;;10.13;97.47
53619;BME280;68717;53.040;18.488;2024-03-29T00:58:35;99571.44;;;10.12;97.23
53619;BME280;68717;53.040;18.488;2024-03-29T00:58:47;99568.94;;;10.11;97.06
53619;BME280;68717;53.040;18.488;2024-03-29T00:58:59;99572.47;;;10.11;96.95
53619;BME280;68717;53.040;18.488;2024-03-29T00:59:11;99568.94;;;10.11;97.18
53619;BME280;68717;53.040;18.488;2024-03-29T00:59:23;99568.09;;;10.10;97.25
53619;BME280;68717;53.040;18.488;2024-03-29T00:59:35;99573.63;;;10.09;97.39
53619;BME280;68717;53.040;18.488;2024-03-29T00:59:49;99574.59;;;10.07;97.65
53619;BME280;68717;53.040;18.488;2024-03-29T01:00:01;99577.47;;;10.06;97.83
53619;BME280;68717;53.040;18.488;2024-03-29T01:00:13;99575.63;;;10.06;98.00
53619;BME280;68717;53.040;18.488;2024-03-29T01:00:25;99574.78;;;10.06;98.51
53619;BME280;68717;53.040;18.488;2024-03-29T01:00:37;99573.94;;;10.05;98.43
53619;BME280;68717;53.040;18.488;2024-03-29T01:00:49;99579.28;;;10.05;98.69
53619;BME280;68717;53.040;18.488;2024-03-29T01:01:01;99574.94;;;10.04;98.73
53619;BME280;68717;53.040;18.488;2024-03-29T01:01:13;99582.13;;;10.04;98.63
53619;BME280;68717;53.040;18.488;2024-03-29T01:01:25;99580.28;;;10.04;98.78
53619;BME280;68717;53.040;18.488;2024-03-29T01:01:37;99581.28;;;10.03;98.86
53619;BME280;68717;53.040;18.488;2024-03-29T01:01:50;99578.59;;;10.03;99.14
53619;BME280;68717;53.040;18.488;2024-03-29T01:02:03;99576.78;;;10.04;98.92
53619;BME280;68717;53.040;18.488;2024-03-29T01:02:15;99575.91;;;10.03;99.12
53619;BME280;68717;53.040;18.488;2024-03-29T01:02:27;99577.75;;;10.03;99.27
53619;BME280;68717;53.040;18.488;2024-03-29T01:02:39;99579.59;;;10.02;99.08
53619;BME280;68717;53.040;18.488;2024-03-29T01:02:51;99583.94;;;10.03;99.26
53619;BME280;68717;53.040;18.488;2024-03-29T01:03:03;99579.59;;;10.02;99.15
53619;BME280;68717;53.040;18.488;2024-03-29T01:03:15;99582.28;;;10.02;99.17
53619;BME280;68717;53.040;18.488;2024-03-29T01:03:27;99586.63;;;10.03;99.31
53619;BME280;68717;53.040;18.488;2024-03-29T01:03:40;99578.59;;;10.03;99.29
53619;BME280;68717;53.040;18.488;2024-03-29T01:03:52;99575.91;;;10.03;99.38
53619;BME280;68717;53.040;18.488;2024-03-29T01:04:04;99584.97;;;10.02;99.39
53619;BME280;68717;53.040;18.488;2024-03-29T01:04:16;99584.97;;;10.02;99.52
53619;BME280;68717;53.040;18.488;2024-03-29T01:04:28;99578.59;;;10.03;99.81
53619;BME280;68717;53.040;18.488;2024-03-29T01:04:41;99589.31;;;10.03;99.51
53619;BME280;68717;53.040;18.488;2024-03-29T01:04:53;99587.50;;;10.04;99.59